Time;durP1;ratioP1;P1;durP2;ratioP2;P2;SDS_P1;SDS_P2;PMS_P1;PMS_P2;Temp;Humidity;BMP_temperature;BMP_pressure;BME280_temperature;BME280_humidity;BME280_pressure;Samples;Min_cycle;Max_cycle;Signal;HPM_P1;HPM_P2
2022/03/22 00:01:40;;;;;;;47.13;18.92;;;;;;;3.99;44.45;103130.60;1722731;83;25711;-58
2022/03/22 00:04:07;;;;;;;45.17;18.55;;;;;;;3.99;44.16;103134.13;1722762;83;28498;-56
2022/03/22 00:06:34;;;;;;;46.80;20.62;;;;;;;4.00;44.17;103135.88;1722530;83;25471;-57
2022/03/22 00:09:01;;;;;;;42.90;20.48;;;;;;;3.98;44.24;103136.40;1748811;81;25520;-57
2022/03/22 00:11:28;;;;;;;47.00;20.05;;;;;;;3.98;44.08;103131.08;1748956;82;25790;-58
2022/03/22 00:13:55;;;;;;;46.10;20.32;;;;;;;3.97;44.11;103139.97;1748916;81;25770;-57
2022/03/22 00:16:21;;;;;;;40.03;20.60;;;;;;;3.96;44.44;103128.00;1742302;80;27561;-56
2022/03/22 00:18:48;;;;;;;43.75;19.42;;;;;;;3.94;44.07;103126.71;1737573;81;25491;-56
2022/03/22 00:21:18;;;;;;;43.42;20.52;;;;;;;3.95;43.77;103123.14;1738014;82;25786;-57
2022/03/22 00:23:45;;;;;;;41.20;18.75;;;;;;;3.97;43.56;103125.32;1737613;82;25811;-57
2022/03/22 00:26:12;;;;;;;40.95;20.15;;;;;;;4.00;43.47;103124.38;1738260;82;25690;-57
2022/03/22 00:28:38;;;;;;;41.55;20.32;;;;;;;4.00;43.56;103129.70;1737979;82;27455;-56
2022/03/22 00:31:07;;;;;;;47.45;19.77;;;;;;;3.94;44.10;103122.72;1737708;81;26494;-57
2022/03/22 00:33:33;;;;;;;49.13;20.23;;;;;;;3.85;43.95;103122.48;1737729;82;25793;-57
2022/03/22 00:36:00;;;;;;;39.20;19.25;;;;;;;3.75;44.02;103120.47;1737808;82;27818;-57
2022/03/22 00:38:28;;;;;;;42.40;20.52;;;;;;;3.70;43.89;103113.48;1737968;82;25698;-56
2022/03/22 00:40:55;;;;;;;48.65;19.77;;;;;;;3.65;43.90;103118.91;1725745;82;27455;-56
2022/03/22 00:43:23;;;;;;;46.35;20.70;;;;;;;3.65;44.12;103110.92;1708367;83;25460;-57
2022/03/22 00:45:49;;;;;;;50.43;20.43;;;;;;;3.68;44.21;103112.20;1708263;83;25788;-57
2022/03/22 00:48:17;;;;;;;40.63;19.42;;;;;;;3.71;44.15;103109.92;1708436;83;26023;-58
2022/03/22 00:50:47;;;;;;;45.58;18.02;;;;;;;3.74;43.89;103105.87;1708422;82;25693;-58
2022/03/22 00:53:19;;;;;;;41.40;19.25;;;;;;;3.72;44.10;103105.88;1708355;82;26753;-57
2022/03/22 00:55:43;;;;;;;41.68;18.82;;;;;;;3.66;43.97;103102.50;1708467;83;26081;-57
2022/03/22 00:58:11;;;;;;;45.20;19.20;;;;;;;3.61;43.68;103107.92;1726265;82;25844;-57
2022/03/22 01:00:40;;;;;;;44.03;20.25;;;;;;;3.55;43.86;103102.71;1737759;82;25775;-57
2022/03/22 01:03:08;;;;;;;43.65;19.87;;;;;;;3.49;43.81;103101.09;1737733;82;25769;-58
2022/03/22 01:05:35;;;;;;;41.88;19.20;;;;;;;3.40;43.96;103107.46;1737862;82;27326;-57
2022/03/22 01:08:06;;;;;;;46.53;18.62;;;;;;;3.31;44.26;103097.01;1737610;82;25483;-57
2022/03/22 01:10:38;;;;;;;42.50;18.62;;;;;;;3.24;44.40;103099.38;1737879;81;25727;-57
2022/03/22 01:13:07;;;;;;;51.10;19.15;;;;;;;3.17;44.81;103097.29;1737676;81;26460;-57
2022/03/22 01:15:36;;;;;;;41.77;18.87;;;;;;;3.13;45.17;103104.45;1737486;81;25805;-56
2022/03/22 01:18:06;;;;;;;41.98;19.45;;;;;;;3.11;45.02;103098.75;1737776;82;27450;-58
2022/03/22 01:20:37;;;;;;;40.30;18.85;;;;;;;3.10;44.86;103095.66;1737563;82;25707;-57
2022/03/22 01:23:07;;;;;;;45.25;19.77;;;;;;;3.11;44.87;103099.61;1737684;82;25757;-56
2022/03/22 01:25:37;;;;;;;37.28;18.37;;;;;;;3.05;45.24;103092.23;1718979;82;25833;-57
2022/03/22 01:28:07;;;;;;;39.92;19.48;;;;;;;3.01;45.98;103096.70;1708252;82;25805;-57
2022/03/22 01:30:36;;;;;;;45.05;20.20;;;;;;;2.95;45.99;103091.08;1708340;84;27465;-57
2022/03/22 01:33:03;;;;;;;41.40;19.02;;;;;;;2.87;45.47;103084.14;1708094;82;25896;-57
2022/03/22 01:35:31;;;;;;;43.83;20.17;;;;;;;2.82;45.54;103094.39;1708363;83;25809;-56
2022/03/22 01:37:58;;;;;;;47.03;19.75;;;;;;;2.76;45.82;103097.17;1708456;82;25769;-56
2022/03/22 01:40:28;;;;;;;43.15;19.77;;;;;;;2.71;45.90;103096.39;1708299;82;25808;-57
2022/03/22 01:42:56;;;;;;;47.17;20.70;;;;;;;2.65;45.99;103092.06;1708329;84;27474;-57
2022/03/22 01:45:23;;;;;;;51.65;20.08;;;;;;;2.60;46.30;103094.37;1708227;82;25711;-58
2022/03/22 01:47:52;;;;;;;39.70;18.75;;;;;;;2.53;46.13;103096.72;1708341;84;25730;-59
2022/03/22 01:50:22;;;;;;;43.78;18.98;;;;;;;2.50;45.90;103095.86;1708673;83;25802;-58
2022/03/22 01:52:49;;;;;;;42.05;20.02;;;;;;;2.44;46.43;103096.41;1708489;84;25786;-58
2022/03/22 01:55:19;;;;;;;41.20;21.50;;;;;;;2.32;46.28;103102.38;1708610;82;27651;-57
2022/03/22 01:57:47;;;;;;;46.45;20.82;;;;;;;2.26;46.58;103101.59;1716363;82;25829;-57
2022/03/22 02:00:18;;;;;;;40.55;20.30;;;;;;;2.23;46.47;103097.64;1684147;84;25600;-58
2022/03/22 02:08:19;;;;;;;41.05;18.57;;;;;;;2.04;47.49;103097.93;1678580;85;29606;-57
2022/03/22 02:10:47;;;;;;;43.87;21.00;;;;;;;1.96;47.80;103093.19;1678498;84;25736;-57
2022/03/22 02:13:14;;;;;;;39.63;19.20;;;;;;;1.94;47.89;103092.33;1678486;84;25480;-57
2022/03/22 02:15:44;;;;;;;40.52;19.65;;;;;;;1.89;47.90;103092.39;1678587;83;25798;-57
2022/03/22 02:18:11;;;;;;;43.65;20.25;;;;;;;1.85;48.15;103091.56;1688418;84;25781;-57
2022/03/22 02:20:38;;;;;;;43.90;19.87;;;;;;;1.82;48.30;103092.06;1688490;85;27476;-57
2022/03/22 02:23:14;;;;;;;43.02;20.52;;;;;;;1.82;48.42;103096.94;1688413;83;25813;-57
2022/03/22 02:25:41;;;;;;;41.58;20.45;;;;;;;1.80;48.60;103096.51;1683471;83;25677;-58
2022/03/22 02:28:08;;;;;;;39.88;19.92;;;;;;;1.75;48.69;103091.27;1683896;85;25799;-58
2022/03/22 02:30:35;;;;;;;47.75;19.87;;;;;;;1.74;48.76;103095.28;1717310;83;25510;-58
2022/03/22 02:33:03;;;;;;;47.67;21.10;;;;;;;1.71;48.73;103094.87;1717250;83;28215;-57
2022/03/22 02:35:31;;;;;;;45.75;20.70;;;;;;;1.68;48.81;103093.59;1717240;83;27254;-58
2022/03/22 02:37:58;;;;;;;45.05;21.17;;;;;;;1.64;48.73;103094.55;1717103;83;25775;-57
2022/03/22 02:40:27;;;;;;;48.98;20.80;;;;;;;1.61;48.89;103094.58;1717288;83;25973;-58
2022/03/22 02:42:56;;;;;;;40.12;20.57;;;;;;;1.61;49.04;103091.92;1717199;83;25736;-57
2022/03/22 02:45:24;;;;;;;60.00;23.07;;;;;;;1.55;49.25;103091.12;1716916;82;27538;-57
2022/03/22 02:47:51;;;;;;;52.65;20.65;;;;;;;1.52;49.13;103091.15;1717137;83;25790;-57
2022/03/22 02:50:21;;;;;;;43.85;20.50;;;;;;;1.50;49.06;103089.42;1717633;83;25780;-57
2022/03/22 02:52:48;;;;;;;42.58;21.87;;;;;;;1.47;49.40;103092.10;1717274;83;25767;-57
2022/03/22 02:55:15;;;;;;;42.65;20.35;;;;;;;1.42;49.65;103096.14;1717155;83;25777;-58
2022/03/22 02:57:43;;;;;;;46.63;20.15;;;;;;;1.35;49.77;103094.47;1726736;82;28487;-57
2022/03/22 03:00:12;;;;;;;54.23;20.05;;;;;;;1.33;49.84;103095.83;1689112;84;25512;-57
2022/03/22 03:02:49;;;;;;;46.28;20.92;;;;;;;1.32;49.78;103093.17;1688252;85;25816;-58
2022/03/22 03:05:17;;;;;;;58.38;24.75;;;;;;;1.30;49.78;103087.89;1687589;83;25781;-57
2022/03/22 03:07:45;;;;;;;47.30;18.85;;;;;;;1.27;49.66;103085.73;1688510;85;25782;-57
2022/03/22 03:10:12;;;;;;;46.33;21.20;;;;;;;1.24;50.22;103082.67;1688701;84;28141;-58
2022/03/22 03:12:39;;;;;;;42.80;19.48;;;;;;;1.22;50.17;103080.02;1688652;84;25822;-57
2022/03/22 03:15:09;;;;;;;46.02;19.87;;;;;;;1.16;50.30;103080.11;1688740;83;25532;-57
2022/03/22 03:17:38;;;;;;;46.80;19.90;;;;;;;1.13;50.46;103073.97;1691514;83;26488;-57
2022/03/22 03:20:07;;;;;;;42.27;19.27;;;;;;;1.09;50.79;103084.59;1693305;83;25753;-57
2022/03/22 03:22:34;;;;;;;46.75;20.30;;;;;;;1.06;50.85;103083.32;1698030;84;28333;-57
2022/03/22 03:25:01;;;;;;;47.33;19.85;;;;;;;1.04;50.92;103084.20;1705071;83;25516;-57
2022/03/22 03:27:28;;;;;;;46.77;20.10;;;;;;;0.99;50.98;103088.23;1714934;83;25728;-56
2022/03/22 03:29:55;;;;;;;40.48;19.90;;;;;;;0.98;51.11;103085.19;1720517;83;25819;-57
2022/03/22 03:32:22;;;;;;;41.23;19.10;;;;;;;0.93;51.37;103079.94;1753910;81;25695;-57
2022/03/22 03:34:49;;;;;;;39.03;18.80;;;;;;;0.89;51.70;103087.47;1717388;83;27489;-57
2022/03/22 03:37:17;;;;;;;48.83;19.52;;;;;;;0.87;51.49;103091.04;1753738;81;25797;-56
2022/03/22 03:39:44;;;;;;;46.42;20.70;;;;;;;0.86;51.58;103086.63;1717572;83;25776;-57
2022/03/22 03:42:11;;;;;;;45.30;18.85;;;;;;;0.85;51.80;103091.03;1753752;81;25968;-57
2022/03/22 03:47:24;;;;;;;47.78;19.95;;;;;;;0.80;51.95;103096.84;1717338;83;27485;-58
2022/03/22 03:49:59;;;;;;;41.40;19.27;;;;;;;0.81;51.88;103098.60;1753422;81;25887;-57
2022/03/22 03:52:29;;;;;;;46.00;20.37;;;;;;;0.81;51.89;103099.92;1717460;83;25745;-57
2022/03/22 03:54:58;;;;;;;45.98;21.68;;;;;;;0.80;51.74;103095.52;1754224;80;25789;-59
2022/03/22 03:57:25;;;;;;;57.58;19.10;;;;;;;0.79;52.30;103095.08;1717180;83;25744;-57
2022/03/22 03:59:54;;;;;;;40.73;20.15;;;;;;;0.77;52.85;103100.84;1753990;81;27474;-57
2022/03/22 04:02:22;;;;;;;74.95;32.40;;;;;;;0.72;52.62;103102.20;1717253;83;25832;-57
2022/03/22 04:04:55;;;;;;;47.03;20.62;;;;;;;0.70;52.54;103096.06;1754023;81;25717;-58
2022/03/22 04:07:25;;;;;;;40.67;20.02;;;;;;;0.72;52.83;103102.66;1717349;83;25823;-57
2022/03/22 04:09:56;;;;;;;52.75;20.95;;;;;;;0.71;52.52;103104.45;1754118;80;27853;-57
2022/03/22 04:12:23;;;;;;;51.18;21.82;;;;;;;0.69;52.96;103103.58;1717229;83;29675;-58
2022/03/22 04:14:51;;;;;;;42.85;19.12;;;;;;;0.68;52.67;103106.22;1753751;81;25866;-58
2022/03/22 04:17:19;;;;;;;43.08;20.90;;;;;;;0.66;52.59;103098.30;1753589;81;25475;-57
2022/03/22 04:19:47;;;;;;;47.67;20.52;;;;;;;0.68;52.72;103102.25;1717332;83;27903;-58
2022/03/22 04:22:14;;;;;;;53.87;22.25;;;;;;;0.67;52.94;103109.33;1753697;81;25954;-57
2022/03/22 04:24:41;;;;;;;49.58;20.25;;;;;;;0.69;52.95;103113.28;1717329;82;27656;-58
2022/03/22 04:32:42;;;;;;;46.05;20.05;;;;;;;0.75;52.93;103119.41;1717355;83;25756;-57
2022/03/22 04:35:18;;;;;;;50.52;19.87;;;;;;;0.77;52.88;103114.98;1753784;81;25865;-57
2022/03/22 04:37:50;;;;;;;57.85;22.60;;;;;;;0.81;53.13;103111.85;1753104;81;28476;-57
2022/03/22 04:40:18;;;;;;;55.12;22.48;;;;;;;0.79;52.98;103114.95;1713057;83;25815;-57
2022/03/22 04:42:51;;;;;;;53.52;21.60;;;;;;;0.73;53.43;103113.70;1737414;81;25520;-56
2022/03/22 04:45:18;;;;;;;59.58;22.95;;;;;;;0.69;53.31;103116.83;1713488;83;26535;-58
2022/03/22 04:47:45;;;;;;;58.02;21.30;;;;;;;0.70;53.52;103115.94;1767825;80;25797;-57
2022/03/22 04:50:15;;;;;;;46.05;21.10;;;;;;;0.67;53.96;103113.30;1787684;80;28412;-58
2022/03/22 04:58:12;;;;;;;54.95;21.05;;;;;;;0.74;53.63;103124.27;1707519;83;25947;-57
2022/03/22 05:00:39;;;;;;;55.90;20.23;;;;;;;0.80;53.69;103134.40;1739252;81;25450;-58
2022/03/22 05:03:08;;;;;;;57.15;20.60;;;;;;;0.86;53.58;103137.84;1701352;83;27503;-58
2022/03/22 05:08:21;;;;;;;55.40;23.77;;;;;;;0.94;53.72;103132.02;1704250;83;25800;-58
2022/03/22 05:10:48;;;;;;;65.67;24.23;;;;;;;1.03;53.77;103132.38;1740185;81;25812;-57
2022/03/22 05:13:15;;;;;;;73.60;24.80;;;;;;;1.17;53.90;103134.89;1702368;83;25462;-58
2022/03/22 05:15:43;;;;;;;58.85;25.17;;;;;;;1.28;53.56;103126.80;1737211;81;27546;-57
2022/03/22 05:18:09;;;;;;;73.80;26.50;;;;;;;1.39;53.40;103133.33;1690044;83;25674;-57
2022/03/22 05:20:37;;;;;;;63.20;22.80;;;;;;;1.49;53.29;103135.41;1722751;81;25736;-58
2022/03/22 05:23:04;;;;;;;71.57;32.17;;;;;;;1.59;53.21;103130.85;1724438;82;25812;-58
2022/03/22 05:25:31;;;;;;;67.47;27.60;;;;;;;1.68;53.15;103134.72;1726441;82;25739;-58
2022/03/22 05:28:03;;;;;;;59.95;25.43;;;;;;;1.73;53.03;103134.22;1729805;82;28179;-58
2022/03/22 05:30:32;;;;;;;67.22;26.25;;;;;;;1.77;52.94;103133.27;1720047;82;25950;-58
2022/03/22 05:33:00;;;;;;;55.00;24.25;;;;;;;1.84;52.92;103141.56;1723959;82;25532;-57
2022/03/22 05:35:28;;;;;;;58.63;26.20;;;;;;;1.90;52.86;103136.62;1725129;82;26502;-57
2022/03/22 05:37:56;;;;;;;63.75;23.02;;;;;;;1.99;52.90;103134.31;1738040;82;25791;-57
2022/03/22 05:40:23;;;;;;;51.50;22.80;;;;;;;2.05;53.38;103137.33;1737611;82;27461;-58
2022/03/22 05:42:51;;;;;;;44.15;20.32;;;;;;;2.12;53.00;103132.34;1737449;82;26022;-59
2022/03/22 05:45:18;;;;;;;49.83;19.73;;;;;;;2.19;53.68;103130.91;1721521;82;25669;-58
2022/03/22 05:47:45;;;;;;;49.45;18.70;;;;;;;2.26;53.64;103136.98;1723305;82;25769;-57
2022/03/22 05:50:12;;;;;;;53.68;23.77;;;;;;;2.31;53.43;103132.92;1712354;82;25708;-57
2022/03/22 05:52:44;;;;;;;49.20;21.55;;;;;;;2.37;53.73;103133.28;1710291;82;27376;-57
2022/03/22 05:55:12;;;;;;;64.70;24.55;;;;;;;2.43;53.68;103143.38;1737596;82;25533;-56
2022/03/22 05:57:40;;;;;;;56.65;21.60;;;;;;;2.49;54.11;103149.04;1722328;82;25696;-57
2022/03/22 06:00:10;;;;;;;47.35;20.17;;;;;;;2.56;53.56;103147.13;1718247;82;26440;-57
2022/03/22 06:02:39;;;;;;;51.10;23.67;;;;;;;2.62;53.83;103144.39;1716555;82;25783;-58
2022/03/22 06:05:11;;;;;;;56.90;22.65;;;;;;;2.71;53.18;103144.67;1708252;83;27470;-57
2022/03/22 06:07:39;;;;;;;57.73;22.70;;;;;;;2.80;52.91;103148.50;1708180;84;25783;-57
2022/03/22 06:10:09;;;;;;;48.95;23.85;;;;;;;2.94;52.81;103149.58;1708411;82;25712;-58
2022/03/22 06:12:47;;;;;;;58.17;22.48;;;;;;;3.04;52.49;103147.66;1708312;82;25926;-58
2022/03/22 06:15:20;;;;;;;53.05;22.05;;;;;;;3.11;52.62;103151.48;1708243;84;25776;-58
2022/03/22 06:17:53;;;;;;;57.83;23.30;;;;;;;3.20;52.18;103148.22;1708178;82;27481;-58
2022/03/22 06:20:23;;;;;;;61.02;23.98;;;;;;;3.30;52.00;103147.13;1708478;83;25684;-57
2022/03/22 06:22:50;;;;;;;57.43;23.10;;;;;;;3.37;51.98;103143.44;1708346;82;26515;-57
2022/03/22 06:25:19;;;;;;;55.83;22.98;;;;;;;3.44;51.92;103142.87;1708110;84;25780;-58
2022/03/22 06:27:49;;;;;;;53.50;22.02;;;;;;;3.52;51.76;103149.38;1708210;84;25946;-57
2022/03/22 06:30:17;;;;;;;40.40;16.67;;;;;;;3.57;52.02;103143.48;1708567;83;28543;-56
2022/03/22 06:32:55;;;;;;;45.03;18.07;;;;;;;3.67;53.03;103138.86;1708151;82;25880;-57
2022/03/22 06:35:26;;;;;;;42.35;16.23;;;;;;;3.80;52.99;103140.34;1708587;82;25831;-57
2022/03/22 06:37:54;;;;;;;34.43;15.80;;;;;;;3.95;53.36;103140.89;1708076;83;26727;-57
2022/03/22 06:40:27;;;;;;;34.38;15.28;;;;;;;4.07;52.99;103133.52;1708315;83;25456;-57
2022/03/22 06:42:52;;;;;;;37.05;15.48;;;;;;;4.20;52.68;103135.88;1708375;82;27643;-58
2022/03/22 06:45:19;;;;;;;35.45;15.25;;;;;;;4.33;52.57;103139.13;1708266;83;25645;-57
2022/03/22 06:47:47;;;;;;;39.83;14.98;;;;;;;4.46;52.56;103142.36;1708431;82;25746;-57
2022/03/22 06:50:16;;;;;;;32.13;14.87;;;;;;;4.59;52.51;103145.59;1708319;82;26464;-57
2022/03/22 06:52:43;;;;;;;29.07;15.25;;;;;;;4.70;52.24;103143.11;1708423;82;26157;-58
2022/03/22 06:55:12;;;;;;;40.30;15.43;;;;;;;4.83;52.17;103142.77;1708344;82;27716;-58
2022/03/22 06:57:40;;;;;;;36.25;15.83;;;;;;;4.95;51.86;103146.45;1711677;82;25675;-58
2022/03/22 07:00:11;;;;;;;32.33;15.50;;;;;;;5.05;51.63;103136.87;1737926;81;25686;-58
2022/03/22 07:02:42;;;;;;;36.48;15.48;;;;;;;5.14;51.47;103140.14;1738002;82;26819;-59
2022/03/22 07:05:11;;;;;;;37.25;15.78;;;;;;;5.24;51.44;103134.11;1737526;82;25524;-59
2022/03/22 07:07:40;;;;;;;36.55;15.48;;;;;;;5.33;51.24;103132.95;1737963;82;28408;-58
2022/03/22 07:10:10;;;;;;;33.92;15.45;;;;;;;5.43;51.04;103135.78;1737545;81;26096;-58
2022/03/22 07:13:04;;;;;;;38.40;15.93;;;;;;;5.54;51.01;103131.45;1737985;82;25764;-56
2022/03/22 07:15:35;;;;;;;33.23;14.70;;;;;;;5.67;50.83;103129.77;1737631;82;25883;-59
2022/03/22 07:18:08;;;;;;;32.17;13.78;;;;;;;5.82;50.53;103123.09;1718545;81;25777;-58
2022/03/22 07:20:36;;;;;;;34.35;14.10;;;;;;;5.90;50.38;103120.58;1753862;81;27485;-58
2022/03/22 07:23:04;;;;;;;32.10;15.15;;;;;;;6.01;50.25;103122.08;1753955;81;25732;-58
2022/03/22 07:25:33;;;;;;;35.90;14.10;;;;;;;6.13;50.03;103123.48;1756875;81;25767;-58
2022/03/22 07:28:01;;;;;;;30.80;13.32;;;;;;;6.23;49.86;103121.78;1759062;81;26083;-57
2022/03/22 07:30:28;;;;;;;41.10;15.93;;;;;;;6.37;49.71;103123.15;1758947;81;25637;-58
2022/03/22 07:32:55;;;;;;;38.35;14.20;;;;;;;6.50;49.57;103120.94;1759148;80;27428;-57
2022/03/22 07:35:22;;;;;;;31.48;14.50;;;;;;;6.63;49.41;103110.69;1759021;80;25953;-58
2022/03/22 07:37:50;;;;;;;28.25;13.65;;;;;;;6.78;49.18;103117.32;1759057;81;25809;-58
2022/03/22 07:40:19;;;;;;;36.03;14.43;;;;;;;6.90;48.92;103128.94;1758916;80;26011;-58
2022/03/22 07:42:45;;;;;;;34.70;15.28;;;;;;;7.04;48.64;103120.39;1759137;81;25725;-58
2022/03/22 07:45:13;;;;;;;34.05;15.15;;;;;;;7.18;48.47;103116.77;1758854;80;27488;-58
2022/03/22 07:47:41;;;;;;;36.00;14.87;;;;;;;7.40;48.23;103113.75;1759145;81;25475;-58
2022/03/22 07:55:39;;;;;;;35.28;13.28;;;;;;;7.86;47.10;103106.62;1759235;81;25712;-58
2022/03/22 07:58:07;;;;;;;33.90;14.10;;;;;;;8.09;46.99;103108.37;1755920;81;27512;-57
2022/03/22 08:00:38;;;;;;;37.30;12.93;;;;;;;8.28;46.61;103095.08;1753756;81;25441;-57
2022/03/22 08:03:09;;;;;;;30.57;13.93;;;;;;;8.52;45.92;103095.00;1717599;83;25739;-57
2022/03/22 08:05:36;;;;;;;31.52;13.50;;;;;;;8.75;45.55;103106.08;1753801;81;26591;-58
2022/03/22 08:08:05;;;;;;;33.45;14.90;;;;;;;8.86;45.32;103105.63;1717210;83;25716;-58
2022/03/22 08:10:32;;;;;;;41.80;14.95;;;;;;;8.95;45.17;103107.02;1753791;80;27463;-57
2022/03/22 08:13:00;;;;;;;33.20;13.43;;;;;;;9.01;44.85;103104.05;1717130;83;26161;-58
2022/03/22 08:15:28;;;;;;;35.85;14.50;;;;;;;9.13;44.92;103104.00;1753559;81;25798;-57
2022/03/22 08:17:56;;;;;;;36.17;15.40;;;;;;;9.27;44.60;103097.11;1717437;83;25735;-57
2022/03/22 08:20:27;;;;;;;36.93;14.63;;;;;;;9.48;43.93;103096.58;1754260;81;25702;-58
2022/03/22 08:22:57;;;;;;;30.35;12.60;;;;;;;9.64;43.97;103102.97;1753926;80;27626;-57
2022/03/22 08:25:33;;;;;;;27.62;12.25;;;;;;;9.82;44.04;103104.38;1753476;81;25496;-58
2022/03/22 08:28:04;;;;;;;29.12;10.85;;;;;;;9.99;43.91;103107.61;1717458;83;26144;-58
2022/03/22 08:30:32;;;;;;;26.00;11.60;;;;;;;10.20;43.49;103104.33;1753659;81;25809;-57
2022/03/22 08:33:03;;;;;;;34.03;11.70;;;;;;;10.40;42.83;103106.05;1717575;83;25512;-56
2022/03/22 08:35:30;;;;;;;23.67;10.23;;;;;;;10.60;42.58;103102.81;1753579;81;26304;-58
2022/03/22 08:37:57;;;;;;;27.02;9.28;;;;;;;10.86;41.52;103097.89;1717381;83;25763;-57
2022/03/22 08:40:25;;;;;;;33.78;9.35;;;;;;;11.09;41.40;103095.33;1753945;80;25619;-57
2022/03/22 08:42:53;;;;;;;22.80;8.53;;;;;;;11.36;40.12;103088.04;1717029;83;25797;-57
2022/03/22 08:45:23;;;;;;;28.47;9.70;;;;;;;11.64;39.39;103085.16;1753651;81;25721;-57
2022/03/22 08:47:52;;;;;;;29.85;10.85;;;;;;;11.82;39.17;103080.56;1717451;83;27625;-57
2022/03/22 08:50:22;;;;;;;21.15;9.18;;;;;;;12.05;38.99;103090.06;1753681;81;26163;-57
2022/03/22 08:52:50;;;;;;;28.65;9.43;;;;;;;12.27;38.26;103087.44;1717641;83;25822;-57
2022/03/22 08:55:18;;;;;;;20.95;8.58;;;;;;;12.45;38.04;103086.35;1758597;80;25951;-57
2022/03/22 08:57:48;;;;;;;19.23;8.48;;;;;;;12.63;38.12;103091.61;1763480;80;25686;-56
2022/03/22 09:00:19;;;;;;;18.57;7.92;;;;;;;12.90;37.30;103086.83;1758821;81;27583;-58
2022/03/22 09:02:48;;;;;;;25.12;9.28;;;;;;;13.11;36.45;103082.80;1758674;81;25951;-57
2022/03/22 09:08:05;;;;;;;21.90;10.00;;;;;;;13.56;35.61;103077.78;1736085;81;25804;-57
2022/03/22 09:10:33;;;;;;;20.50;8.45;;;;;;;13.84;35.26;103076.84;1700270;83;25781;-57
2022/03/22 09:13:01;;;;;;;25.80;8.03;;;;;;;14.10;35.56;103072.88;1667520;84;28334;-58
2022/03/22 09:15:29;;;;;;;26.87;9.38;;;;;;;14.43;33.22;103065.28;1737013;81;25671;-58
2022/03/22 09:17:58;;;;;;;24.95;7.40;;;;;;;14.67;33.94;103064.95;1717261;83;25689;-57
2022/03/22 09:20:31;;;;;;;32.40;8.25;;;;;;;15.00;31.76;103052.73;1753691;81;25768;-58
2022/03/22 09:22:55;;;;;;;18.75;7.53;;;;;;;15.23;30.75;103050.20;1716307;83;25773;-57
2022/03/22 09:25:22;;;;;;;14.68;6.72;;;;;;;15.31;30.89;103049.16;1749817;81;28226;-57
2022/03/22 09:27:49;;;;;;;16.12;6.72;;;;;;;15.57;30.77;103048.23;1746418;82;25904;-56
2022/03/22 09:30:17;;;;;;;21.35;7.40;;;;;;;15.91;29.83;103034.38;1754153;80;25704;-57
2022/03/22 09:32:44;;;;;;;41.28;8.23;;;;;;;16.46;29.38;103035.70;1745190;80;25791;-58
2022/03/22 09:35:16;;;;;;;15.00;7.45;;;;;;;17.09;28.51;103033.44;1701560;83;25786;-58
2022/03/22 09:37:44;;;;;;;15.38;5.97;;;;;;;17.82;27.98;103028.36;1736513;81;27480;-58
2022/03/22 09:40:14;;;;;;;18.23;6.75;;;;;;;18.59;25.75;103026.40;1734209;81;26139;-57
2022/03/22 09:42:45;;;;;;;19.75;6.35;;;;;;;19.10;24.79;103025.67;1752714;79;25751;-58
2022/03/22 09:45:17;;;;;;;18.90;5.85;;;;;;;19.49;25.23;103018.98;1762378;81;26595;-58
2022/03/22 09:47:45;;;;;;;35.80;5.53;;;;;;;20.11;24.08;103016.03;1735201;81;26102;-57
2022/03/22 09:50:16;;;;;;;28.05;5.55;;;;;;;20.65;22.46;103014.98;1735344;79;27417;-58
2022/03/22 09:52:43;;;;;;;30.40;6.67;;;;;;;21.05;22.52;103003.41;1766360;79;25712;-59
2022/03/22 09:55:13;;;;;;;25.50;5.70;;;;;;;21.55;21.06;103003.48;1749468;81;25849;-58
2022/03/22 09:57:40;;;;;;;19.65;6.08;;;;;;;21.80;20.71;103014.22;1681878;83;26046;-59
2022/03/22 10:00:11;;;;;;;17.20;6.10;;;;;;;22.03;21.32;103002.77;1715118;83;25844;-59
2022/03/22 10:02:40;;;;;;;20.32;6.30;;;;;;;22.47;20.77;103001.41;1701568;83;28520;-58
2022/03/22 10:05:23;;;;;;;13.55;5.75;;;;;;;22.87;21.19;102999.06;1701917;83;25675;-57
2022/03/22 10:08:08;;;;;;;16.60;6.12;;;;;;;23.19;20.96;102992.53;1699895;83;25775;-59
2022/03/22 10:10:39;;;;;;;12.63;5.17;;;;;;;23.78;20.61;102986.99;1706504;83;26471;-57
2022/03/22 10:13:06;;;;;;;17.48;5.20;;;;;;;24.49;18.10;102991.44;1675001;83;25837;-59
2022/03/22 10:15:36;;;;;;;27.13;6.45;;;;;;;24.67;18.26;102982.11;1737899;81;28148;-59
2022/03/22 10:18:09;;;;;;;13.15;4.55;;;;;;;24.94;17.89;102975.84;1705337;83;25698;-59
2022/03/22 10:20:39;;;;;;;25.75;5.97;;;;;;;25.21;16.46;102959.38;1747441;81;25818;-59
2022/03/22 10:23:10;;;;;;;18.60;6.10;;;;;;;24.94;16.76;102971.71;1750262;81;26534;-59
2022/03/22 10:25:42;;;;;;;19.42;5.25;;;;;;;24.83;17.53;102977.94;1758864;80;25817;-59
2022/03/22 10:28:10;;;;;;;43.05;7.75;;;;;;;25.29;16.49;102965.33;1766974;81;27504;-59
2022/03/22 10:30:38;;;;;;;16.12;4.58;;;;;;;25.72;16.17;102964.91;1747284;81;25795;-58
2022/03/22 10:33:05;;;;;;;22.58;4.70;;;;;;;26.20;14.95;102959.16;1730606;81;25823;-59
2022/03/22 10:35:37;;;;;;;14.38;5.33;;;;;;;26.01;15.32;102959.14;1739140;81;26444;-59
2022/03/22 10:38:09;;;;;;;17.73;4.40;;;;;;;26.24;14.86;102943.95;1739407;81;25916;-59
2022/03/22 10:40:45;;;;;;;21.25;4.55;;;;;;;26.25;15.17;102944.30;1773971;79;28129;-59
2022/03/22 10:43:22;;;;;;;11.85;5.33;;;;;;;26.45;14.30;102941.82;1794393;79;25694;-58
2022/03/22 10:46:02;;;;;;;9.48;4.78;;;;;;;26.49;14.15;102929.88;1765324;81;25846;-57
2022/03/22 10:48:33;;;;;;;16.57;5.35;;;;;;;26.20;14.12;102934.33;1765252;81;25794;-57
2022/03/22 10:51:02;;;;;;;8.73;4.33;;;;;;;26.13;14.88;102921.84;1742679;80;25735;-59
2022/03/22 10:53:32;;;;;;;12.55;4.53;;;;;;;26.44;14.92;102920.79;1758329;81;27561;-59
2022/03/22 10:56:02;;;;;;;23.10;4.80;;;;;;;26.86;14.69;102912.88;1750291;81;25840;-59
2022/03/22 10:58:31;;;;;;;15.68;5.62;;;;;;;27.01;13.92;102911.47;1754093;79;25832;-59
2022/03/22 11:01:06;;;;;;;8.90;4.60;;;;;;;26.78;14.28;102915.22;1749000;81;25888;-59
2022/03/22 11:03:33;;;;;;;14.03;4.40;;;;;;;26.89;13.15;102895.94;1750466;80;26644;-59
2022/03/22 11:06:04;;;;;;;18.77;4.12;;;;;;;26.58;14.15;102897.53;1750220;81;28142;-59
2022/03/22 11:08:31;;;;;;;13.13;4.20;;;;;;;26.94;13.96;102902.26;1750847;81;25747;-58
2022/03/22 11:10:58;;;;;;;14.75;4.08;;;;;;;27.46;12.78;102903.91;1749347;81;25790;-59
2022/03/22 11:13:26;;;;;;;24.00;5.03;;;;;;;27.51;12.98;102901.05;1751864;81;26285;-58
2022/03/22 11:15:55;;;;;;;19.75;5.28;;;;;;;27.69;12.82;102886.77;1754062;80;25479;-60
2022/03/22 11:18:23;;;;;;;15.72;4.25;;;;;;;27.97;12.71;102889.52;1751037;81;27446;-59
2022/03/22 11:20:55;;;;;;;13.25;3.87;;;;;;;28.36;12.58;102869.24;1741616;81;25775;-59
2022/03/22 11:23:25;;;;;;;10.60;3.83;;;;;;;28.35;12.60;102886.91;1737818;81;25767;-60
2022/03/22 11:25:53;;;;;;;23.75;4.10;;;;;;;28.45;12.24;102882.40;1704952;83;25806;-60
2022/03/22 11:28:23;;;;;;;60.08;7.28;;;;;;;28.33;11.94;102867.75;1737775;81;25470;-59
2022/03/22 11:30:52;;;;;;;16.37;5.40;;;;;;;27.80;12.12;102874.63;1741640;81;27479;-60
2022/03/22 11:36:18;;;;;;;22.37;4.37;;;;;;;26.53;12.57;102844.29;1753537;81;25851;-58
2022/03/22 11:38:52;;;;;;;20.57;4.28;;;;;;;25.78;13.42;102871.80;1753045;81;25802;-58
2022/03/22 11:44:21;;;;;;;18.02;4.17;;;;;;;25.44;13.63;102864.88;1746734;81;27506;-58
2022/03/22 11:47:12;;;;;;;11.40;4.12;;;;;;;25.33;13.96;102860.64;1746331;82;25818;-59
2022/03/22 11:49:55;;;;;;;15.38;4.08;;;;;;;25.36;13.59;102858.91;1751137;80;26317;-59
2022/03/22 11:52:26;;;;;;;23.95;5.40;;;;;;;25.15;13.73;102852.16;1770716;80;25978;-59
2022/03/22 11:55:00;;;;;;;13.08;4.58;;;;;;;24.82;13.96;102851.52;1769678;80;25986;-59
2022/03/22 11:57:28;;;;;;;13.90;4.30;;;;;;;24.37;14.47;102860.30;1761843;81;27455;-58
2022/03/22 11:59:55;;;;;;;14.35;4.20;;;;;;;24.20;14.69;102857.27;1740113;79;25709;-58
2022/03/22 12:02:30;;;;;;;21.95;4.62;;;;;;;24.26;14.56;102848.30;1757087;80;25522;-58